Terminal Aerodrome Forecast
Issued by NWS

Home | Current Version | Previous Version | Text Only | Print | Product List | Glossary On
Versions: 1 2 3 4 5 6 7 8 9 10 11 12 13 14 15 16
000
FTUS43 KGRR 250530
TAFJXN
TAF
KJXN 250530Z 2506/2606 01007KT 3SM BR VCSH OVC007
     FM251600 01010KT P6SM VCSH OVC015
     FM252200 35010G16KT P6SM VCTS BKN025CB
     FM260300 35007KT P6SM BKN035=

USA.gov is the U.S. government's official web portal to all federal, state and local government web resources and services.